createdAt,value
2019-05-22T00:00:41.230Z,13.68
2019-05-22T00:03:13.314Z,14.38
2019-05-22T00:05:45.129Z,14.23
2019-05-22T00:08:16.973Z,13.88
2019-05-22T00:10:49.717Z,14.58
2019-05-22T00:13:22.858Z,13.88
2019-05-22T00:15:54.524Z,13.50
2019-05-22T00:18:25.507Z,14.38
2019-05-22T00:20:57.205Z,14.63
2019-05-22T00:23:29.568Z,14.70
2019-05-22T00:26:00.455Z,15.20
2019-05-22T00:28:32.228Z,14.63
2019-05-22T00:31:03.473Z,14.75
2019-05-22T00:33:36.376Z,15.10
2019-05-22T00:36:08.217Z,14.53
2019-05-22T00:38:39.741Z,15.68
2019-05-22T00:41:11.874Z,14.35
2019-05-22T00:43:44.588Z,14.53
2019-05-22T00:46:20.358Z,14.47
2019-05-22T00:48:52.140Z,15.78
2019-05-22T00:51:40.840Z,15.55
2019-05-22T00:54:38.896Z,15.40
2019-05-22T00:57:34.773Z,15.40
2019-05-22T01:00:19.225Z,15.10
2019-05-22T01:02:50.665Z,14.68
2019-05-22T01:05:22.508Z,14.93
2019-05-22T01:07:57.253Z,14.93
2019-05-22T01:10:30.290Z,14.50
2019-05-22T01:13:03.298Z,15.05
2019-05-22T01:15:35.086Z,15.38
2019-05-22T01:18:10.307Z,14.93
2019-05-22T01:20:42.096Z,14.03
2019-05-22T01:23:17.827Z,15.95
2019-05-22T01:25:48.006Z,14.93
2019-05-22T01:28:19.687Z,15.58
2019-05-22T01:31:03.013Z,15.23
2019-05-22T01:33:51.063Z,16.17
2019-05-22T01:36:30.269Z,16.32
2019-05-22T01:39:20.885Z,17.35
2019-05-22T01:41:53.265Z,16.90
2019-05-22T01:44:24.781Z,17.05
2019-05-22T01:46:56.499Z,16.80
2019-05-22T01:49:26.734Z,17.23
2019-05-22T01:51:57.578Z,15.95
2019-05-22T01:54:28.199Z,16.07
2019-05-22T01:57:06.338Z,16.02
2019-05-22T01:59:38.744Z,16.27
2019-05-22T02:02:11.687Z,15.80
2019-05-22T02:04:42.172Z,15.25
2019-05-22T02:07:14.208Z,15.60
2019-05-22T02:09:46.025Z,14.75
2019-05-22T02:12:27.693Z,15.30
2019-05-22T02:14:58.433Z,13.75
2019-05-22T02:17:33.754Z,13.55
2019-05-22T02:20:06.571Z,14.00
2019-05-22T02:22:38.610Z,12.95
2019-05-22T02:25:10.019Z,12.05
2019-05-22T02:27:41.176Z,13.43
2019-05-22T02:30:13.864Z,12.50
2019-05-22T02:32:45.950Z,12.05
2019-05-22T02:35:16.185Z,12.60
2019-05-22T02:37:47.939Z,12.35
2019-05-22T02:40:23.834Z,12.15
2019-05-22T02:42:54.962Z,11.43
2019-05-22T02:45:26.492Z,11.40
2019-05-22T02:47:58.497Z,11.90
2019-05-22T02:50:29.715Z,11.22
2019-05-22T02:53:02.043Z,11.63
2019-05-22T02:55:32.746Z,12.05
2019-05-22T02:58:03.721Z,11.05
2019-05-22T03:01:00.237Z,12.35
2019-05-22T03:03:32.023Z,12.82
2019-05-22T03:06:02.225Z,12.23
2019-05-22T03:09:06.087Z,12.15
2019-05-22T03:11:39.596Z,13.20
2019-05-22T03:14:11.254Z,12.53
2019-05-22T03:16:52.047Z,13.22
2019-05-22T03:19:36.622Z,12.45
2019-05-22T03:22:20.752Z,13.83
2019-05-22T03:24:53.438Z,12.50
2019-05-22T03:27:49.188Z,13.55
2019-05-22T03:30:30.623Z,13.83
2019-05-22T03:33:03.911Z,14.53
2019-05-22T03:35:43.778Z,12.28
2019-05-22T03:38:15.352Z,14.55
2019-05-22T03:40:46.430Z,14.90
2019-05-22T03:43:22.462Z,15.25
2019-05-22T03:45:54.353Z,14.45
2019-05-22T03:48:26.406Z,14.65
2019-05-22T03:51:00.694Z,15.20
2019-05-22T03:53:30.716Z,16.30
2019-05-22T03:56:03.236Z,15.10
2019-05-22T03:58:34.592Z,15.45
2019-05-22T04:01:06.534Z,15.68
2019-05-22T04:03:45.649Z,18.45
2019-05-22T04:06:17.589Z,15.60
2019-05-22T04:08:48.338Z,15.93
2019-05-22T04:11:20.004Z,15.20
2019-05-22T04:13:50.652Z,14.98
2019-05-22T04:16:24.916Z,16.02
2019-05-22T04:18:57.826Z,16.65
2019-05-22T04:21:31.178Z,15.85
2019-05-22T04:24:01.379Z,15.43
2019-05-22T04:26:33.338Z,15.25
2019-05-22T04:29:06.043Z,15.45
2019-05-22T04:31:46.901Z,15.88
2019-05-22T04:34:17.823Z,15.00
2019-05-22T04:36:48.220Z,15.48
2019-05-22T04:39:24.176Z,15.20
2019-05-22T04:41:55.181Z,16.48
2019-05-22T04:44:26.401Z,13.85
2019-05-22T04:46:56.968Z,15.40
2019-05-22T04:49:27.036Z,16.02
2019-05-22T04:51:57.297Z,15.00
2019-05-22T04:54:27.521Z,15.35
2019-05-22T04:56:57.922Z,13.62
2019-05-22T04:59:29.695Z,14.53
2019-05-22T05:01:59.891Z,14.38
2019-05-22T05:04:30.700Z,14.20
2019-05-22T05:07:04.552Z,13.13
2019-05-22T05:09:34.917Z,13.30
2019-05-22T05:12:06.182Z,13.00
2019-05-22T05:14:36.562Z,13.98
2019-05-22T05:17:08.466Z,14.47
2019-05-22T05:19:38.492Z,13.78
2019-05-22T05:22:08.631Z,13.75
2019-05-22T05:24:38.930Z,12.75
2019-05-22T05:27:10.777Z,13.68
2019-05-22T05:29:40.857Z,14.70
2019-05-22T05:32:11.786Z,12.90
2019-05-22T05:34:50.063Z,13.40
2019-05-22T05:37:22.934Z,14.93
2019-05-22T05:40:39.242Z,12.70
2019-05-22T05:43:15.059Z,13.88
2019-05-22T05:45:48.666Z,16.32
2019-05-22T05:48:25.872Z,13.98
2019-05-22T05:51:35.640Z,12.85
2019-05-22T05:54:16.017Z,12.63
2019-05-22T05:56:49.745Z,14.00
2019-05-22T05:59:22.535Z,13.03
2019-05-22T06:01:54.774Z,13.50
2019-05-22T06:04:37.979Z,13.70
2019-05-22T06:07:21.724Z,13.25
2019-05-22T06:10:25.337Z,12.93
2019-05-22T06:12:55.921Z,12.88
2019-05-22T06:15:46.453Z,13.10
2019-05-22T06:18:32.625Z,12.10
2019-05-22T06:21:04.990Z,13.50
2019-05-22T06:24:12.265Z,11.50
2019-05-22T06:27:08.159Z,11.90
2019-05-22T06:30:07.127Z,10.85
2019-05-22T06:33:30.519Z,12.10
2019-05-22T06:36:04.719Z,11.97
2019-05-22T06:39:03.098Z,10.75
2019-05-22T06:41:37.432Z,10.55
2019-05-22T06:44:40.837Z,10.28
2019-05-22T06:47:28.526Z,9.48
2019-05-22T06:49:59.253Z,6.55
2019-05-22T06:52:30.683Z,5.12
2019-05-22T06:55:01.120Z,4.80
2019-05-22T06:57:33.410Z,4.60
2019-05-22T07:00:16.378Z,4.70
2019-05-22T07:02:47.150Z,3.70
2019-05-22T07:05:17.495Z,4.00
2019-05-22T07:07:48.012Z,3.65
2019-05-22T07:10:19.537Z,4.03
2019-05-22T07:12:51.213Z,4.10
2019-05-22T07:15:31.248Z,4.53
2019-05-22T07:18:03.075Z,4.50
2019-05-22T07:20:37.981Z,4.53
2019-05-22T07:23:11.717Z,5.17
2019-05-22T07:25:44.653Z,5.85
2019-05-22T07:28:18.163Z,6.10
2019-05-22T07:30:48.780Z,6.70
2019-05-22T07:33:19.683Z,7.15
2019-05-22T07:36:08.624Z,7.42
2019-05-22T07:38:22.098Z,6.72
2019-05-22T07:40:52.940Z,7.28
2019-05-22T07:43:23.688Z,6.95
2019-05-22T07:45:57.352Z,7.00
2019-05-22T07:48:28.925Z,6.95
2019-05-22T07:50:59.546Z,6.87
2019-05-22T07:53:29.605Z,6.60
2019-05-22T07:56:02.552Z,6.60
2019-05-22T07:58:34.611Z,5.92
2019-05-22T08:01:04.872Z,5.60
2019-05-22T08:03:35.816Z,5.67
2019-05-22T08:06:08.437Z,5.35
2019-05-22T08:08:41.437Z,5.50
2019-05-22T08:11:12.139Z,5.03
2019-05-22T08:13:43.445Z,5.62
2019-05-22T08:16:13.826Z,5.35
2019-05-22T08:18:44.385Z,4.60
2019-05-22T08:21:14.789Z,4.95
2019-05-22T08:23:48.260Z,4.60
2019-05-22T08:26:21.033Z,5.15
2019-05-22T08:28:51.617Z,5.75
2019-05-22T08:31:24.701Z,5.08
2019-05-22T08:33:55.306Z,6.03
2019-05-22T08:36:26.969Z,5.53
2019-05-22T08:38:58.611Z,5.67
2019-05-22T08:41:32.743Z,5.35
2019-05-22T08:44:16.219Z,5.50
2019-05-22T08:46:35.776Z,5.50
2019-05-22T08:49:07.186Z,4.97
2019-05-22T08:51:37.432Z,4.75
2019-05-22T08:54:07.956Z,4.83
2019-05-22T08:56:40.599Z,4.40
2019-05-22T08:59:19.391Z,4.20
2019-05-22T09:01:42.775Z,4.53
2019-05-22T09:04:12.981Z,4.12
2019-05-22T09:06:43.508Z,4.00
2019-05-22T09:09:13.844Z,3.95
2019-05-22T09:11:43.878Z,3.92
2019-05-22T09:14:13.985Z,4.37
2019-05-22T09:16:46.314Z,4.08
2019-05-22T09:19:16.597Z,4.53
2019-05-22T09:21:48.037Z,4.33
2019-05-22T09:24:20.023Z,4.60
2019-05-22T09:26:50.421Z,4.72
2019-05-22T09:29:22.592Z,5.10
2019-05-22T09:31:53.077Z,5.90
2019-05-22T09:34:23.261Z,6.05
2019-05-22T09:36:53.581Z,6.30
2019-05-22T09:39:23.961Z,5.70
2019-05-22T09:41:54.088Z,6.42
2019-05-22T09:44:24.623Z,6.45
2019-05-22T09:46:55.967Z,7.53
2019-05-22T09:49:26.569Z,8.03
2019-05-22T09:51:57.058Z,6.87
2019-05-22T09:54:27.815Z,7.95
2019-05-22T09:56:59.617Z,7.75
2019-05-22T09:59:29.854Z,7.40
2019-05-22T10:02:00.266Z,7.58
2019-05-22T10:04:32.030Z,7.33
2019-05-22T10:07:02.114Z,6.95
2019-05-22T10:09:32.299Z,8.25
2019-05-22T10:12:02.883Z,7.78
2019-05-22T10:14:33.365Z,8.75
2019-05-22T10:17:05.479Z,8.83
2019-05-22T10:19:35.555Z,8.63
2019-05-22T10:22:05.668Z,9.58
2019-05-22T10:24:36.358Z,8.78
2019-05-22T10:27:07.629Z,8.88
2019-05-22T10:29:45.412Z,9.10
2019-05-22T10:32:15.741Z,9.68
2019-05-22T10:34:45.824Z,8.85
2019-05-22T10:37:16.393Z,9.10
2019-05-22T10:39:47.141Z,9.48
2019-05-22T10:42:19.249Z,8.15
2019-05-22T10:44:50.218Z,9.05
2019-05-22T10:47:20.570Z,8.15
2019-05-22T10:49:51.682Z,8.13
2019-05-22T10:52:22.212Z,8.60
2019-05-22T10:54:55.942Z,10.05
2019-05-22T10:57:24.992Z,10.43
2019-05-22T10:59:55.173Z,10.80
2019-05-22T11:02:25.465Z,10.72
2019-05-22T11:04:55.579Z,11.48
2019-05-22T11:07:26.638Z,10.65
2019-05-22T11:10:00.775Z,10.30
2019-05-22T11:12:31.348Z,11.20
2019-05-22T11:15:02.011Z,12.55
2019-05-22T11:17:33.209Z,12.78
2019-05-22T11:20:03.345Z,12.10
2019-05-22T11:22:35.044Z,11.50
2019-05-22T11:25:06.348Z,12.90
2019-05-22T11:27:37.987Z,11.63
2019-05-22T11:30:08.926Z,12.30
2019-05-22T11:32:39.456Z,12.85
2019-05-22T11:35:10.260Z,12.05
2019-05-22T11:37:40.573Z,13.62
2019-05-22T11:40:12.082Z,12.73
2019-05-22T11:42:43.076Z,12.60
2019-05-22T11:45:16.270Z,12.40
2019-05-22T11:47:46.728Z,12.43
2019-05-22T11:50:18.787Z,12.37
2019-05-22T11:52:48.872Z,11.57
2019-05-22T11:55:20.890Z,11.57
2019-05-22T11:57:51.799Z,10.60
2019-05-22T12:00:23.501Z,10.53
2019-05-22T12:02:54.709Z,11.75
2019-05-22T12:05:26.434Z,11.40
2019-05-22T12:07:58.215Z,11.48
2019-05-22T12:10:30.387Z,11.08
2019-05-22T12:13:01.346Z,11.05
2019-05-22T12:15:31.862Z,11.45
2019-05-22T12:18:02.329Z,10.72
2019-05-22T12:20:32.690Z,10.38
2019-05-22T12:23:02.969Z,11.03
2019-05-22T12:25:33.460Z,11.03
2019-05-22T12:28:05.389Z,10.72
2019-05-22T12:30:36.395Z,11.05
2019-05-22T12:33:13.142Z,10.43
2019-05-22T12:35:41.190Z,10.58
2019-05-22T12:38:13.310Z,10.15
2019-05-22T12:40:44.101Z,9.98
2019-05-22T12:43:15.250Z,9.88
2019-05-22T12:45:45.792Z,10.25
2019-05-22T12:48:15.948Z,10.45
2019-05-22T12:50:46.531Z,9.18
2019-05-22T12:53:17.231Z,10.30
2019-05-22T12:55:47.447Z,10.90
2019-05-22T12:58:18.178Z,10.78
2019-05-22T13:00:48.441Z,9.43
2019-05-22T13:03:20.838Z,9.60
2019-05-22T13:05:52.850Z,10.93
2019-05-22T13:08:23.413Z,9.90
2019-05-22T13:10:54.220Z,10.75
2019-05-22T13:13:25.453Z,11.88
2019-05-22T13:15:58.668Z,11.22
2019-05-22T13:18:29.386Z,11.15
2019-05-22T13:21:00.839Z,10.53
2019-05-22T13:23:38.190Z,10.20
2019-05-22T13:26:10.520Z,10.93
2019-05-22T13:28:45.237Z,10.90
2019-05-22T13:31:15.623Z,11.68
2019-05-22T13:33:46.158Z,11.38
2019-05-22T13:36:18.050Z,11.68
2019-05-22T13:38:48.778Z,11.85
2019-05-22T13:41:19.657Z,11.88
2019-05-22T13:43:50.484Z,11.48
2019-05-22T13:46:20.764Z,11.10
2019-05-22T13:48:50.903Z,10.32
2019-05-22T13:51:21.380Z,10.58
2019-05-22T13:53:53.619Z,12.20
2019-05-22T13:56:25.594Z,11.55
2019-05-22T13:58:57.598Z,11.18
2019-05-22T14:01:28.299Z,11.50
2019-05-22T14:03:58.310Z,11.70
2019-05-22T14:06:28.538Z,11.40
2019-05-22T14:08:59.108Z,10.85
2019-05-22T14:11:29.292Z,10.05
2019-05-22T14:13:59.482Z,10.75
2019-05-22T14:16:29.760Z,11.05
2019-05-22T14:18:59.957Z,10.63
2019-05-22T14:21:30.065Z,11.00
2019-05-22T14:24:00.122Z,11.57
2019-05-22T14:26:30.338Z,11.15
2019-05-22T14:29:01.472Z,10.58
2019-05-22T14:31:31.602Z,10.30
2019-05-22T14:34:02.672Z,10.40
2019-05-22T14:36:33.017Z,10.58
2019-05-22T14:39:06.036Z,10.48
2019-05-22T14:41:36.141Z,10.85
2019-05-22T14:44:06.640Z,10.78
2019-05-22T14:46:36.759Z,11.15
2019-05-22T14:49:06.996Z,11.08
2019-05-22T14:51:38.199Z,12.43
2019-05-22T14:54:09.671Z,12.18
2019-05-22T14:56:40.724Z,11.83
2019-05-22T14:59:11.525Z,11.38
2019-05-22T15:01:41.961Z,10.48
2019-05-22T15:04:13.154Z,10.93
2019-05-22T15:06:43.588Z,11.93
2019-05-22T15:09:14.775Z,10.85
2019-05-22T15:11:44.878Z,11.25
2019-05-22T15:14:15.270Z,10.82
2019-05-22T15:16:45.418Z,10.95
2019-05-22T15:19:15.622Z,10.08
2019-05-22T15:21:45.751Z,10.28
2019-05-22T15:24:15.761Z,9.70
2019-05-22T15:26:47.121Z,10.10
2019-05-22T15:29:17.863Z,9.15
2019-05-22T15:31:48.448Z,8.90
2019-05-22T15:34:20.326Z,9.50
2019-05-22T15:36:50.605Z,9.48
2019-05-22T15:39:23.545Z,9.80
2019-05-22T15:41:55.770Z,9.50
2019-05-22T15:44:27.881Z,8.93
2019-05-22T15:46:58.134Z,9.20
2019-05-22T15:49:29.860Z,9.28
2019-05-22T15:52:00.120Z,9.10
2019-05-22T15:54:31.153Z,8.45
2019-05-22T15:57:03.745Z,8.33
2019-05-22T15:59:35.796Z,8.65
2019-05-22T16:02:06.344Z,9.78
2019-05-22T16:04:38.882Z,8.98
2019-05-22T16:07:09.051Z,10.05
2019-05-22T16:09:39.866Z,9.50
2019-05-22T16:12:10.276Z,9.58
2019-05-22T16:14:41.516Z,9.33
2019-05-22T16:17:13.548Z,9.98
2019-05-22T16:19:44.609Z,9.98
2019-05-22T16:22:14.778Z,9.95
2019-05-22T16:24:45.425Z,9.13
2019-05-22T16:27:18.160Z,10.13
2019-05-22T16:29:49.407Z,10.30
2019-05-22T16:32:21.981Z,10.90
2019-05-22T16:34:53.197Z,10.32
2019-05-22T16:37:24.585Z,9.70
2019-05-22T16:39:54.713Z,10.15
2019-05-22T16:42:24.943Z,10.28
2019-05-22T16:44:56.053Z,10.05
2019-05-22T16:47:26.306Z,9.43
2019-05-22T16:49:56.419Z,10.18
2019-05-22T16:52:28.243Z,8.93
2019-05-22T16:55:01.337Z,9.28
2019-05-22T16:57:32.350Z,9.25
2019-05-22T17:00:03.615Z,9.00
2019-05-22T17:02:37.643Z,8.35
2019-05-22T17:05:10.417Z,8.40
2019-05-22T17:07:41.376Z,9.15
2019-05-22T17:10:14.608Z,9.05
2019-05-22T17:12:46.421Z,9.63
2019-05-22T17:15:18.326Z,8.45
2019-05-22T17:17:50.639Z,9.00
2019-05-22T17:20:24.531Z,8.18
2019-05-22T17:22:55.360Z,9.00
2019-05-22T17:25:28.006Z,9.43
2019-05-22T17:27:58.142Z,9.00
2019-05-22T17:30:30.317Z,9.63
2019-05-22T17:33:00.681Z,9.70
2019-05-22T17:35:32.182Z,9.23
2019-05-22T17:38:03.573Z,9.30
2019-05-22T17:40:36.301Z,9.75
2019-05-22T17:43:09.357Z,9.08
2019-05-22T17:45:42.717Z,9.18
2019-05-22T17:48:15.239Z,8.93
2019-05-22T17:50:47.181Z,9.43
2019-05-22T17:53:17.731Z,9.10
2019-05-22T17:55:48.742Z,9.23
2019-05-22T17:58:24.043Z,9.25
2019-05-22T18:00:53.378Z,8.90
2019-05-22T18:03:23.899Z,9.15
2019-05-22T18:05:54.987Z,9.83
2019-05-22T18:08:26.301Z,9.68
2019-05-22T18:10:58.907Z,8.80
2019-05-22T18:13:29.727Z,8.88
2019-05-22T18:16:04.243Z,8.80
2019-05-22T18:18:32.564Z,9.03
2019-05-22T18:21:03.247Z,9.55
2019-05-22T18:23:33.414Z,8.68
2019-05-22T18:26:03.478Z,9.10
2019-05-22T18:28:33.539Z,9.08
2019-05-22T18:31:04.222Z,8.33
2019-05-22T18:33:34.442Z,8.93
2019-05-22T18:36:04.739Z,9.65
2019-05-22T18:38:34.873Z,9.78
2019-05-22T18:41:05.178Z,9.45
2019-05-22T18:43:35.682Z,9.28
2019-05-22T18:46:05.761Z,9.40
2019-05-22T18:48:35.794Z,9.30
2019-05-22T18:51:06.257Z,10.20
2019-05-22T18:53:36.401Z,9.78
2019-05-22T18:56:06.641Z,10.05
2019-05-22T18:58:37.295Z,10.10
2019-05-22T19:01:08.163Z,9.75
2019-05-22T19:03:38.690Z,9.20
2019-05-22T19:06:09.444Z,9.35
2019-05-22T19:08:39.657Z,9.73
2019-05-22T19:11:10.159Z,9.63
2019-05-22T19:13:40.151Z,9.60
2019-05-22T19:16:10.396Z,9.88
2019-05-22T19:18:40.551Z,10.08
2019-05-22T19:21:11.065Z,9.68
2019-05-22T19:23:41.609Z,10.13
2019-05-22T19:26:11.769Z,10.82
2019-05-22T19:28:44.418Z,10.28
2019-05-22T19:31:15.036Z,10.45
2019-05-22T19:33:45.131Z,10.18
2019-05-22T19:36:15.537Z,10.25
2019-05-22T19:38:49.364Z,10.50
2019-05-22T19:41:19.810Z,10.95
2019-05-22T19:43:50.636Z,11.08
2019-05-22T19:46:21.172Z,10.30
2019-05-22T19:48:52.157Z,10.80
2019-05-22T19:51:22.579Z,10.20
2019-05-22T19:53:53.056Z,10.32
2019-05-22T19:56:24.101Z,10.10
2019-05-22T19:58:54.243Z,10.60
2019-05-22T20:01:25.106Z,11.10
2019-05-22T20:03:55.722Z,11.28
2019-05-22T20:06:26.595Z,10.53
2019-05-22T20:08:57.199Z,10.80
2019-05-22T20:11:28.043Z,11.80
2019-05-22T20:13:59.104Z,13.60
2019-05-22T20:16:29.618Z,11.38
2019-05-22T20:18:59.906Z,11.65
2019-05-22T20:21:30.151Z,11.12
2019-05-22T20:24:00.642Z,10.48
2019-05-22T20:26:31.145Z,11.75
2019-05-22T20:29:01.287Z,11.63
2019-05-22T20:31:31.882Z,11.08
2019-05-22T20:34:02.120Z,10.95
2019-05-22T20:36:32.740Z,9.93
2019-05-22T20:39:03.973Z,10.55
2019-05-22T20:41:34.328Z,9.93
2019-05-22T20:44:05.994Z,11.00
2019-05-22T20:46:37.861Z,9.90
2019-05-22T20:49:10.297Z,10.53
2019-05-22T20:51:41.215Z,11.18
2019-05-22T20:54:12.907Z,11.12
2019-05-22T20:56:46.885Z,10.98
2019-05-22T20:59:18.746Z,12.00
2019-05-22T21:01:49.309Z,10.45
2019-05-22T21:04:20.360Z,11.10
2019-05-22T21:07:00.104Z,11.50
2019-05-22T21:09:31.538Z,11.30
2019-05-22T21:12:03.234Z,9.88
2019-05-22T21:14:34.016Z,11.50
2019-05-22T21:17:05.727Z,11.03
2019-05-22T21:19:36.590Z,10.98
2019-05-22T21:22:07.855Z,10.95
2019-05-22T21:24:38.021Z,10.98
2019-05-22T21:27:09.129Z,11.45
2019-05-22T21:29:39.766Z,11.57
2019-05-22T21:32:10.410Z,11.70
2019-05-22T21:34:40.624Z,11.55
2019-05-22T21:37:11.241Z,11.18
2019-05-22T21:39:42.139Z,11.57
2019-05-22T21:42:13.091Z,11.38
2019-05-22T21:44:43.739Z,11.48
2019-05-22T21:47:14.733Z,11.25
2019-05-22T21:49:44.877Z,11.93
2019-05-22T21:52:17.466Z,12.15
2019-05-22T21:54:48.419Z,12.53
2019-05-22T21:57:19.009Z,11.45
2019-05-22T21:59:49.337Z,11.55
2019-05-22T22:02:27.890Z,11.05
2019-05-22T22:04:58.257Z,11.65
2019-05-22T22:07:30.632Z,12.40
2019-05-22T22:10:00.893Z,11.53
2019-05-22T22:12:32.753Z,11.65
2019-05-22T22:15:03.342Z,11.65
2019-05-22T22:17:37.596Z,12.37
2019-05-22T22:20:07.824Z,11.68
2019-05-22T22:22:37.972Z,11.40
2019-05-22T22:25:09.286Z,12.43
2019-05-22T22:27:39.711Z,12.50
2019-05-22T22:30:22.470Z,12.65
2019-05-22T22:32:53.182Z,12.10
2019-05-22T22:35:23.539Z,11.88
2019-05-22T22:37:53.570Z,12.25
2019-05-22T22:40:29.208Z,12.58
2019-05-22T22:43:01.105Z,12.68
2019-05-22T22:45:53.696Z,12.53
2019-05-22T22:48:25.894Z,12.80
2019-05-22T22:50:56.231Z,12.73
2019-05-22T22:53:26.902Z,12.65
2019-05-22T22:55:57.737Z,12.70
2019-05-22T22:58:28.457Z,12.37
2019-05-22T23:01:00.431Z,12.30
2019-05-22T23:03:32.157Z,12.58
2019-05-22T23:06:02.913Z,12.30
2019-05-22T23:08:35.174Z,13.03
2019-05-22T23:11:07.437Z,12.05
2019-05-22T23:13:38.424Z,12.75
2019-05-22T23:16:09.437Z,11.78
2019-05-22T23:19:33.689Z,12.40
2019-05-22T23:22:05.651Z,12.35
2019-05-22T23:24:38.820Z,12.45
2019-05-22T23:27:10.677Z,12.70
2019-05-22T23:29:41.809Z,12.85
2019-05-22T23:32:14.565Z,13.18
2019-05-22T23:34:47.351Z,12.23
2019-05-22T23:37:20.364Z,12.58
2019-05-22T23:39:52.946Z,12.88
2019-05-22T23:42:28.654Z,12.95
2019-05-22T23:45:01.098Z,12.53
2019-05-22T23:47:32.119Z,12.78
2019-05-22T23:50:03.673Z,12.82
2019-05-22T23:52:35.992Z,12.50
2019-05-22T23:55:09.532Z,12.70
2019-05-22T23:57:39.725Z,12.10
